sensor_id;sensor_type;location;lat;lon;timestamp;P1;durP1;ratioP1;P2;durP2;ratioP2
61531;SDS011;47397;48.194;11.632;2022-08-02T00:00:24;2.08;;;1.40;;
61531;SDS011;47397;48.194;11.632;2022-08-02T00:01:25;2.10;;;1.40;;
61531;SDS011;47397;48.194;11.632;2022-08-02T00:02:25;2.22;;;1.33;;
61531;SDS011;47397;48.194;11.632;2022-08-02T00:03:25;3.25;;;1.35;;
61531;SDS011;47397;48.194;11.632;2022-08-02T00:04:26;2.17;;;1.52;;
61531;SDS011;47397;48.194;11.632;2022-08-02T00:05:26;2.13;;;1.42;;
61531;SDS011;47397;48.194;11.632;2022-08-02T00:06:27;2.10;;;1.35;;
61531;SDS011;47397;48.194;11.632;2022-08-02T00:07:27;2.13;;;1.23;;
61531;SDS011;47397;48.194;11.632;2022-08-02T00:08:27;2.10;;;1.42;;
61531;SDS011;47397;48.194;11.632;2022-08-02T00:09:28;2.40;;;1.20;;
61531;SDS011;47397;48.194;11.632;2022-08-02T00:10:28;2.05;;;1.27;;
61531;SDS011;47397;48.194;11.632;2022-08-02T00:11:29;2.08;;;1.30;;
61531;SDS011;47397;48.194;11.632;2022-08-02T00:12:30;2.40;;;1.45;;
61531;SDS011;47397;48.194;11.632;2022-08-02T00:13:30;2.50;;;1.20;;
61531;SDS011;47397;48.194;11.632;2022-08-02T00:14:31;2.08;;;1.40;;
61531;SDS011;47397;48.194;11.632;2022-08-02T00:15:33;2.72;;;1.50;;
61531;SDS011;47397;48.194;11.632;2022-08-02T00:16:33;2.78;;;1.30;;
61531;SDS011;47397;48.194;11.632;2022-08-02T00:17:33;3.03;;;1.33;;
61531;SDS011;47397;48.194;11.632;2022-08-02T00:18:34;3.13;;;1.55;;
61531;SDS011;47397;48.194;11.632;2022-08-02T00:19:34;2.67;;;1.30;;
61531;SDS011;47397;48.194;11.632;2022-08-02T00:20:35;1.90;;;1.30;;
61531;SDS011;47397;48.194;11.632;2022-08-02T00:21:35;2.08;;;1.27;;
61531;SDS011;47397;48.194;11.632;2022-08-02T00:22:36;2.63;;;1.30;;
61531;SDS011;47397;48.194;11.632;2022-08-02T00:23:36;2.80;;;1.50;;
61531;SDS011;47397;48.194;11.632;2022-08-02T00:24:36;2.28;;;1.33;;
61531;SDS011;47397;48.194;11.632;2022-08-02T00:25:37;3.10;;;1.35;;
61531;SDS011;47397;48.194;11.632;2022-08-02T00:26:37;2.33;;;1.33;;
61531;SDS011;47397;48.194;11.632;2022-08-02T00:27:38;3.08;;;1.40;;
61531;SDS011;47397;48.194;11.632;2022-08-02T00:28:38;2.05;;;1.38;;
61531;SDS011;47397;48.194;11.632;2022-08-02T00:29:39;2.20;;;1.30;;
61531;SDS011;47397;48.194;11.632;2022-08-02T00:30:41;2.00;;;1.27;;
61531;SDS011;47397;48.194;11.632;2022-08-02T00:31:41;1.90;;;1.20;;
61531;SDS011;47397;48.194;11.632;2022-08-02T00:32:41;2.22;;;1.40;;
61531;SDS011;47397;48.194;11.632;2022-08-02T00:33:42;2.50;;;1.20;;
61531;SDS011;47397;48.194;11.632;2022-08-02T00:34:42;2.10;;;1.45;;
61531;SDS011;47397;48.194;11.632;2022-08-02T00:35:43;1.60;;;1.13;;
61531;SDS011;47397;48.194;11.632;2022-08-02T00:36:43;2.35;;;1.30;;
61531;SDS011;47397;48.194;11.632;2022-08-02T00:37:44;2.90;;;1.48;;
61531;SDS011;47397;48.194;11.632;2022-08-02T00:38:44;3.28;;;1.27;;
61531;SDS011;47397;48.194;11.632;2022-08-02T00:39:45;2.38;;;1.20;;
61531;SDS011;47397;48.194;11.632;2022-08-02T00:40:45;1.95;;;1.13;;
61531;SDS011;47397;48.194;11.632;2022-08-02T00:41:46;1.92;;;1.35;;
61531;SDS011;47397;48.194;11.632;2022-08-02T00:42:58;2.83;;;1.27;;
61531;SDS011;47397;48.194;11.632;2022-08-02T00:43:59;1.67;;;1.10;;
61531;SDS011;47397;48.194;11.632;2022-08-02T00:45:00;2.47;;;1.27;;
61531;SDS011;47397;48.194;11.632;2022-08-02T00:46:02;3.15;;;1.20;;
61531;SDS011;47397;48.194;11.632;2022-08-02T00:47:02;2.55;;;1.17;;
61531;SDS011;47397;48.194;11.632;2022-08-02T00:48:03;1.85;;;1.10;;
61531;SDS011;47397;48.194;11.632;2022-08-02T00:49:04;2.28;;;1.38;;
61531;SDS011;47397;48.194;11.632;2022-08-02T00:50:05;2.40;;;1.40;;
61531;SDS011;47397;48.194;11.632;2022-08-02T00:51:05;1.92;;;1.10;;
61531;SDS011;47397;48.194;11.632;2022-08-02T00:52:06;2.17;;;1.52;;
61531;SDS011;47397;48.194;11.632;2022-08-02T00:53:07;2.95;;;1.30;;
61531;SDS011;47397;48.194;11.632;2022-08-02T00:54:08;2.38;;;1.23;;
61531;SDS011;47397;48.194;11.632;2022-08-02T00:55:08;3.50;;;1.52;;
61531;SDS011;47397;48.194;11.632;2022-08-02T00:56:08;2.60;;;1.50;;
61531;SDS011;47397;48.194;11.632;2022-08-02T00:57:09;1.83;;;1.15;;
61531;SDS011;47397;48.194;11.632;2022-08-02T00:58:09;2.38;;;1.30;;
61531;SDS011;47397;48.194;11.632;2022-08-02T00:59:10;2.53;;;1.40;;
61531;SDS011;47397;48.194;11.632;2022-08-02T01:00:10;2.20;;;1.30;;
61531;SDS011;47397;48.194;11.632;2022-08-02T01:01:12;2.38;;;1.20;;
61531;SDS011;47397;48.194;11.632;2022-08-02T01:02:14;2.13;;;1.30;;
61531;SDS011;47397;48.194;11.632;2022-08-02T01:03:14;2.30;;;1.50;;
61531;SDS011;47397;48.194;11.632;2022-08-02T01:04:14;2.10;;;1.33;;
61531;SDS011;47397;48.194;11.632;2022-08-02T01:05:15;2.03;;;1.30;;
61531;SDS011;47397;48.194;11.632;2022-08-02T01:06:15;2.28;;;1.40;;
61531;SDS011;47397;48.194;11.632;2022-08-02T01:07:16;2.60;;;1.38;;
61531;SDS011;47397;48.194;11.632;2022-08-02T01:08:16;2.50;;;1.40;;
61531;SDS011;47397;48.194;11.632;2022-08-02T01:09:17;1.95;;;1.30;;
61531;SDS011;47397;48.194;11.632;2022-08-02T01:10:17;3.00;;;1.60;;
61531;SDS011;47397;48.194;11.632;2022-08-02T01:11:18;3.25;;;1.48;;
61531;SDS011;47397;48.194;11.632;2022-08-02T01:12:18;2.40;;;1.35;;
61531;SDS011;47397;48.194;11.632;2022-08-02T01:13:18;2.35;;;1.10;;
61531;SDS011;47397;48.194;11.632;2022-08-02T01:14:20;4.35;;;1.75;;
61531;SDS011;47397;48.194;11.632;2022-08-02T01:15:23;2.65;;;1.33;;
61531;SDS011;47397;48.194;11.632;2022-08-02T01:16:27;2.35;;;1.20;;
61531;SDS011;47397;48.194;11.632;2022-08-02T01:17:31;2.20;;;1.38;;
61531;SDS011;47397;48.194;11.632;2022-08-02T01:18:37;2.90;;;1.70;;
61531;SDS011;47397;48.194;11.632;2022-08-02T01:19:42;3.30;;;1.35;;
61531;SDS011;47397;48.194;11.632;2022-08-02T01:21:08;4.28;;;1.60;;
61531;SDS011;47397;48.194;11.632;2022-08-02T01:22:29;3.42;;;1.48;;
61531;SDS011;47397;48.194;11.632;2022-08-02T01:23:44;3.70;;;1.48;;
61531;SDS011;47397;48.194;11.632;2022-08-02T01:25:03;3.22;;;1.50;;
61531;SDS011;47397;48.194;11.632;2022-08-02T01:27:39;3.25;;;1.35;;
61531;SDS011;47397;48.194;11.632;2022-08-02T01:28:51;3.42;;;1.40;;
61531;SDS011;47397;48.194;11.632;2022-08-02T01:29:57;3.00;;;1.50;;
61531;SDS011;47397;48.194;11.632;2022-08-02T01:31:00;2.25;;;1.58;;
61531;SDS011;47397;48.194;11.632;2022-08-02T01:32:04;2.83;;;1.50;;
61531;SDS011;47397;48.194;11.632;2022-08-02T01:33:08;2.05;;;1.20;;
61531;SDS011;47397;48.194;11.632;2022-08-02T01:34:14;2.65;;;1.38;;
61531;SDS011;47397;48.194;11.632;2022-08-02T01:35:19;2.80;;;1.40;;
61531;SDS011;47397;48.194;11.632;2022-08-02T01:36:23;2.67;;;1.38;;
61531;SDS011;47397;48.194;11.632;2022-08-02T01:37:31;2.70;;;1.40;;
61531;SDS011;47397;48.194;11.632;2022-08-02T01:38:37;2.35;;;1.30;;
61531;SDS011;47397;48.194;11.632;2022-08-02T01:39:41;3.20;;;1.67;;
61531;SDS011;47397;48.194;11.632;2022-08-02T01:40:43;2.55;;;1.60;;
61531;SDS011;47397;48.194;11.632;2022-08-02T01:41:45;3.88;;;1.48;;
61531;SDS011;47397;48.194;11.632;2022-08-02T01:42:47;2.45;;;1.40;;
61531;SDS011;47397;48.194;11.632;2022-08-02T01:43:53;2.22;;;1.38;;
61531;SDS011;47397;48.194;11.632;2022-08-02T01:44:56;2.33;;;1.50;;
61531;SDS011;47397;48.194;11.632;2022-08-02T01:46:00;4.25;;;1.63;;
61531;SDS011;47397;48.194;11.632;2022-08-02T01:47:03;2.35;;;1.60;;
61531;SDS011;47397;48.194;11.632;2022-08-02T01:48:06;2.40;;;1.50;;
61531;SDS011;47397;48.194;11.632;2022-08-02T01:49:14;2.75;;;1.50;;
61531;SDS011;47397;48.194;11.632;2022-08-02T01:50:19;2.78;;;1.60;;
61531;SDS011;47397;48.194;11.632;2022-08-02T01:51:24;2.20;;;1.50;;
61531;SDS011;47397;48.194;11.632;2022-08-02T01:52:28;2.40;;;1.38;;
61531;SDS011;47397;48.194;11.632;2022-08-02T01:53:30;3.42;;;1.60;;
61531;SDS011;47397;48.194;11.632;2022-08-02T01:54:32;2.47;;;1.63;;
61531;SDS011;47397;48.194;11.632;2022-08-02T01:55:36;2.33;;;1.20;;
61531;SDS011;47397;48.194;11.632;2022-08-02T01:56:38;2.60;;;1.65;;
61531;SDS011;47397;48.194;11.632;2022-08-02T01:57:44;2.15;;;1.30;;
61531;SDS011;47397;48.194;11.632;2022-08-02T01:58:47;2.13;;;1.30;;
61531;SDS011;47397;48.194;11.632;2022-08-02T01:59:50;3.13;;;1.60;;
61531;SDS011;47397;48.194;11.632;2022-08-02T02:00:51;2.47;;;1.45;;
61531;SDS011;47397;48.194;11.632;2022-08-02T02:01:55;2.42;;;1.42;;
61531;SDS011;47397;48.194;11.632;2022-08-02T02:02:57;2.63;;;1.60;;
61531;SDS011;47397;48.194;11.632;2022-08-02T02:03:59;2.85;;;1.60;;
61531;SDS011;47397;48.194;11.632;2022-08-02T02:05:01;4.57;;;1.77;;
61531;SDS011;47397;48.194;11.632;2022-08-02T02:06:04;3.05;;;1.70;;
61531;SDS011;47397;48.194;11.632;2022-08-02T02:07:06;2.53;;;1.70;;
61531;SDS011;47397;48.194;11.632;2022-08-02T02:08:07;3.30;;;1.77;;
61531;SDS011;47397;48.194;11.632;2022-08-02T02:09:09;2.03;;;1.50;;
61531;SDS011;47397;48.194;11.632;2022-08-02T02:10:12;3.90;;;1.67;;
61531;SDS011;47397;48.194;11.632;2022-08-02T02:11:14;2.60;;;1.65;;
61531;SDS011;47397;48.194;11.632;2022-08-02T02:12:15;2.55;;;1.80;;
61531;SDS011;47397;48.194;11.632;2022-08-02T02:13:17;2.65;;;1.60;;
61531;SDS011;47397;48.194;11.632;2022-08-02T02:14:19;2.00;;;1.40;;
61531;SDS011;47397;48.194;11.632;2022-08-02T02:15:22;3.53;;;1.73;;
61531;SDS011;47397;48.194;11.632;2022-08-02T02:16:24;2.65;;;1.90;;
61531;SDS011;47397;48.194;11.632;2022-08-02T02:17:25;3.35;;;1.60;;
61531;SDS011;47397;48.194;11.632;2022-08-02T02:18:27;2.90;;;1.90;;
61531;SDS011;47397;48.194;11.632;2022-08-02T02:19:29;2.65;;;1.83;;
61531;SDS011;47397;48.194;11.632;2022-08-02T02:20:33;2.95;;;1.50;;
61531;SDS011;47397;48.194;11.632;2022-08-02T02:21:33;2.92;;;1.70;;
61531;SDS011;47397;48.194;11.632;2022-08-02T02:22:34;2.88;;;1.95;;
61531;SDS011;47397;48.194;11.632;2022-08-02T02:23:34;2.63;;;1.95;;
61531;SDS011;47397;48.194;11.632;2022-08-02T02:24:35;2.65;;;2.15;;
61531;SDS011;47397;48.194;11.632;2022-08-02T02:25:35;2.83;;;1.98;;
61531;SDS011;47397;48.194;11.632;2022-08-02T02:26:39;4.95;;;1.92;;
61531;SDS011;47397;48.194;11.632;2022-08-02T02:27:42;2.30;;;1.73;;
61531;SDS011;47397;48.194;11.632;2022-08-02T02:28:48;2.47;;;1.60;;
61531;SDS011;47397;48.194;11.632;2022-08-02T02:29:51;2.80;;;2.10;;
61531;SDS011;47397;48.194;11.632;2022-08-02T02:30:56;3.88;;;1.77;;
61531;SDS011;47397;48.194;11.632;2022-08-02T02:31:59;2.45;;;1.70;;
61531;SDS011;47397;48.194;11.632;2022-08-02T02:33:01;3.00;;;1.80;;
61531;SDS011;47397;48.194;11.632;2022-08-02T02:34:04;2.88;;;1.70;;
61531;SDS011;47397;48.194;11.632;2022-08-02T02:35:07;3.15;;;1.60;;
61531;SDS011;47397;48.194;11.632;2022-08-02T02:36:17;2.70;;;2.00;;
61531;SDS011;47397;48.194;11.632;2022-08-02T02:37:20;2.70;;;1.80;;
61531;SDS011;47397;48.194;11.632;2022-08-02T02:38:22;3.97;;;2.00;;
61531;SDS011;47397;48.194;11.632;2022-08-02T02:39:26;3.60;;;1.63;;
61531;SDS011;47397;48.194;11.632;2022-08-02T02:40:27;2.72;;;1.80;;
61531;SDS011;47397;48.194;11.632;2022-08-02T02:41:28;2.72;;;1.83;;
61531;SDS011;47397;48.194;11.632;2022-08-02T02:42:29;2.70;;;2.00;;
61531;SDS011;47397;48.194;11.632;2022-08-02T02:43:31;2.97;;;1.50;;
61531;SDS011;47397;48.194;11.632;2022-08-02T02:44:33;3.25;;;1.80;;
61531;SDS011;47397;48.194;11.632;2022-08-02T02:45:35;3.10;;;1.83;;
61531;SDS011;47397;48.194;11.632;2022-08-02T02:46:39;2.42;;;1.70;;
61531;SDS011;47397;48.194;11.632;2022-08-02T02:47:40;2.75;;;1.80;;
61531;SDS011;47397;48.194;11.632;2022-08-02T02:48:41;2.33;;;1.80;;
61531;SDS011;47397;48.194;11.632;2022-08-02T02:49:42;3.88;;;1.63;;
61531;SDS011;47397;48.194;11.632;2022-08-02T02:50:44;2.75;;;1.70;;
61531;SDS011;47397;48.194;11.632;2022-08-02T02:51:46;2.80;;;1.92;;
61531;SDS011;47397;48.194;11.632;2022-08-02T02:52:47;2.40;;;1.60;;
61531;SDS011;47397;48.194;11.632;2022-08-02T02:53:49;3.00;;;1.67;;
61531;SDS011;47397;48.194;11.632;2022-08-02T02:54:50;3.20;;;2.00;;
61531;SDS011;47397;48.194;11.632;2022-08-02T02:55:52;2.67;;;1.60;;
61531;SDS011;47397;48.194;11.632;2022-08-02T02:56:53;2.50;;;1.45;;
61531;SDS011;47397;48.194;11.632;2022-08-02T02:57:54;2.45;;;1.60;;
61531;SDS011;47397;48.194;11.632;2022-08-02T02:58:55;2.15;;;1.58;;
61531;SDS011;47397;48.194;11.632;2022-08-02T02:59:56;2.65;;;1.70;;
61531;SDS011;47397;48.194;11.632;2022-08-02T03:00:57;3.28;;;1.77;;
61531;SDS011;47397;48.194;11.632;2022-08-02T03:01:59;2.25;;;1.70;;
61531;SDS011;47397;48.194;11.632;2022-08-02T03:03:00;2.97;;;1.77;;
61531;SDS011;47397;48.194;11.632;2022-08-02T03:04:02;4.07;;;1.63;;
61531;SDS011;47397;48.194;11.632;2022-08-02T03:05:05;3.35;;;1.80;;
61531;SDS011;47397;48.194;11.632;2022-08-02T03:06:06;3.13;;;1.70;;
61531;SDS011;47397;48.194;11.632;2022-08-02T03:07:06;2.58;;;1.70;;
61531;SDS011;47397;48.194;11.632;2022-08-02T03:08:08;2.30;;;1.70;;
61531;SDS011;47397;48.194;11.632;2022-08-02T03:09:08;2.60;;;1.90;;
61531;SDS011;47397;48.194;11.632;2022-08-02T03:10:09;2.45;;;1.80;;
61531;SDS011;47397;48.194;11.632;2022-08-02T03:11:11;2.72;;;2.08;;
61531;SDS011;47397;48.194;11.632;2022-08-02T03:12:12;3.15;;;1.88;;
61531;SDS011;47397;48.194;11.632;2022-08-02T03:13:12;3.60;;;2.00;;
61531;SDS011;47397;48.194;11.632;2022-08-02T03:14:13;3.97;;;1.95;;
61531;SDS011;47397;48.194;11.632;2022-08-02T03:15:14;3.38;;;2.08;;
61531;SDS011;47397;48.194;11.632;2022-08-02T03:16:15;2.60;;;1.75;;
61531;SDS011;47397;48.194;11.632;2022-08-02T03:17:18;3.70;;;1.92;;
61531;SDS011;47397;48.194;11.632;2022-08-02T03:18:30;3.03;;;1.90;;
61531;SDS011;47397;48.194;11.632;2022-08-02T03:19:32;2.47;;;1.52;;
61531;SDS011;47397;48.194;11.632;2022-08-02T03:20:32;3.80;;;2.10;;
61531;SDS011;47397;48.194;11.632;2022-08-02T03:21:33;3.45;;;1.70;;
61531;SDS011;47397;48.194;11.632;2022-08-02T03:22:34;4.40;;;1.83;;
61531;SDS011;47397;48.194;11.632;2022-08-02T03:23:35;3.50;;;1.88;;
61531;SDS011;47397;48.194;11.632;2022-08-02T03:24:35;2.92;;;1.90;;
61531;SDS011;47397;48.194;11.632;2022-08-02T03:25:36;3.35;;;1.80;;
61531;SDS011;47397;48.194;11.632;2022-08-02T03:26:36;3.63;;;1.80;;
61531;SDS011;47397;48.194;11.632;2022-08-02T03:27:38;2.53;;;1.67;;
61531;SDS011;47397;48.194;11.632;2022-08-02T03:28:39;3.17;;;1.60;;
61531;SDS011;47397;48.194;11.632;2022-08-02T03:29:39;2.40;;;1.83;;
61531;SDS011;47397;48.194;11.632;2022-08-02T03:30:40;3.38;;;2.10;;
61531;SDS011;47397;48.194;11.632;2022-08-02T03:31:40;2.90;;;2.13;;
61531;SDS011;47397;48.194;11.632;2022-08-02T03:32:45;3.15;;;1.98;;
61531;SDS011;47397;48.194;11.632;2022-08-02T03:33:47;2.05;;;1.60;;
61531;SDS011;47397;48.194;11.632;2022-08-02T03:34:48;2.75;;;1.92;;
61531;SDS011;47397;48.194;11.632;2022-08-02T03:35:49;2.53;;;1.83;;
61531;SDS011;47397;48.194;11.632;2022-08-02T03:36:54;3.33;;;1.92;;
61531;SDS011;47397;48.194;11.632;2022-08-02T03:37:56;3.38;;;2.45;;
61531;SDS011;47397;48.194;11.632;2022-08-02T03:38:57;4.35;;;1.88;;
61531;SDS011;47397;48.194;11.632;2022-08-02T03:39:59;3.95;;;1.92;;
61531;SDS011;47397;48.194;11.632;2022-08-02T03:41:00;2.95;;;1.95;;
61531;SDS011;47397;48.194;11.632;2022-08-02T03:42:01;4.20;;;2.22;;
61531;SDS011;47397;48.194;11.632;2022-08-02T03:43:02;2.92;;;2.15;;
61531;SDS011;47397;48.194;11.632;2022-08-02T03:44:04;2.70;;;1.83;;
61531;SDS011;47397;48.194;11.632;2022-08-02T03:45:07;5.15;;;1.95;;
61531;SDS011;47397;48.194;11.632;2022-08-02T03:46:09;3.20;;;1.90;;
61531;SDS011;47397;48.194;11.632;2022-08-02T03:47:10;3.40;;;1.73;;
61531;SDS011;47397;48.194;11.632;2022-08-02T03:48:13;3.13;;;1.88;;
61531;SDS011;47397;48.194;11.632;2022-08-02T03:49:15;2.95;;;1.90;;
61531;SDS011;47397;48.194;11.632;2022-08-02T03:50:15;2.72;;;1.80;;
61531;SDS011;47397;48.194;11.632;2022-08-02T03:51:17;2.83;;;1.70;;
61531;SDS011;47397;48.194;11.632;2022-08-02T03:52:18;3.00;;;1.92;;
61531;SDS011;47397;48.194;11.632;2022-08-02T03:53:19;2.85;;;1.90;;
61531;SDS011;47397;48.194;11.632;2022-08-02T03:54:20;3.75;;;1.95;;
61531;SDS011;47397;48.194;11.632;2022-08-02T03:55:21;4.68;;;1.92;;
61531;SDS011;47397;48.194;11.632;2022-08-02T03:56:22;3.13;;;2.00;;
61531;SDS011;47397;48.194;11.632;2022-08-02T03:57:22;3.25;;;2.08;;
61531;SDS011;47397;48.194;11.632;2022-08-02T03:58:23;4.07;;;1.92;;
61531;SDS011;47397;48.194;11.632;2022-08-02T03:59:24;3.28;;;2.03;;
61531;SDS011;47397;48.194;11.632;2022-08-02T04:00:25;3.55;;;1.80;;
61531;SDS011;47397;48.194;11.632;2022-08-02T04:01:26;4.50;;;1.90;;
61531;SDS011;47397;48.194;11.632;2022-08-02T04:02:26;3.90;;;2.03;;
61531;SDS011;47397;48.194;11.632;2022-08-02T04:03:28;2.65;;;1.65;;
61531;SDS011;47397;48.194;11.632;2022-08-02T04:04:28;3.70;;;1.80;;
61531;SDS011;47397;48.194;11.632;2022-08-02T04:05:29;2.53;;;2.10;;
61531;SDS011;47397;48.194;11.632;2022-08-02T04:06:29;3.40;;;2.00;;
61531;SDS011;47397;48.194;11.632;2022-08-02T04:07:30;3.65;;;2.20;;
61531;SDS011;47397;48.194;11.632;2022-08-02T04:08:30;4.78;;;2.20;;
61531;SDS011;47397;48.194;11.632;2022-08-02T04:09:31;4.18;;;2.17;;
61531;SDS011;47397;48.194;11.632;2022-08-02T04:10:31;4.35;;;2.15;;
61531;SDS011;47397;48.194;11.632;2022-08-02T04:11:32;3.95;;;1.90;;
61531;SDS011;47397;48.194;11.632;2022-08-02T04:12:32;3.30;;;1.98;;
61531;SDS011;47397;48.194;11.632;2022-08-02T04:13:33;3.47;;;2.30;;
61531;SDS011;47397;48.194;11.632;2022-08-02T04:14:35;2.70;;;1.75;;
61531;SDS011;47397;48.194;11.632;2022-08-02T04:15:35;2.75;;;1.90;;
61531;SDS011;47397;48.194;11.632;2022-08-02T04:16:39;3.90;;;2.20;;
61531;SDS011;47397;48.194;11.632;2022-08-02T04:17:42;4.80;;;2.33;;
61531;SDS011;47397;48.194;11.632;2022-08-02T04:18:50;3.72;;;2.20;;
61531;SDS011;47397;48.194;11.632;2022-08-02T04:19:57;3.67;;;2.17;;
61531;SDS011;47397;48.194;11.632;2022-08-02T04:21:01;2.90;;;1.73;;
61531;SDS011;47397;48.194;11.632;2022-08-02T04:22:05;3.95;;;2.30;;
61531;SDS011;47397;48.194;11.632;2022-08-02T04:23:08;2.78;;;1.80;;
61531;SDS011;47397;48.194;11.632;2022-08-02T04:24:13;4.45;;;2.20;;
61531;SDS011;47397;48.194;11.632;2022-08-02T04:25:16;4.43;;;1.92;;
61531;SDS011;47397;48.194;11.632;2022-08-02T04:26:19;3.55;;;2.17;;
61531;SDS011;47397;48.194;11.632;2022-08-02T04:27:20;4.82;;;2.15;;
61531;SDS011;47397;48.194;11.632;2022-08-02T04:28:21;5.10;;;1.92;;
61531;SDS011;47397;48.194;11.632;2022-08-02T04:29:23;4.28;;;2.03;;
61531;SDS011;47397;48.194;11.632;2022-08-02T04:30:24;2.70;;;1.92;;
61531;SDS011;47397;48.194;11.632;2022-08-02T04:31:26;4.35;;;2.00;;
61531;SDS011;47397;48.194;11.632;2022-08-02T04:32:27;3.20;;;2.00;;
61531;SDS011;47397;48.194;11.632;2022-08-02T04:33:28;4.25;;;2.00;;
61531;SDS011;47397;48.194;11.632;2022-08-02T04:34:30;3.72;;;2.00;;
61531;SDS011;47397;48.194;11.632;2022-08-02T04:35:30;3.72;;;2.33;;
61531;SDS011;47397;48.194;11.632;2022-08-02T04:36:31;3.30;;;2.08;;
61531;SDS011;47397;48.194;11.632;2022-08-02T04:37:31;3.15;;;2.10;;
61531;SDS011;47397;48.194;11.632;2022-08-02T04:38:33;4.68;;;2.33;;
61531;SDS011;47397;48.194;11.632;2022-08-02T04:39:33;4.03;;;2.00;;
61531;SDS011;47397;48.194;11.632;2022-08-02T04:40:34;3.40;;;2.13;;
61531;SDS011;47397;48.194;11.632;2022-08-02T04:41:35;2.70;;;1.85;;
61531;SDS011;47397;48.194;11.632;2022-08-02T04:42:37;4.82;;;2.00;;
61531;SDS011;47397;48.194;11.632;2022-08-02T04:43:38;3.38;;;2.20;;
61531;SDS011;47397;48.194;11.632;2022-08-02T04:44:39;5.63;;;2.30;;
61531;SDS011;47397;48.194;11.632;2022-08-02T04:45:39;3.05;;;2.05;;
61531;SDS011;47397;48.194;11.632;2022-08-02T04:46:40;2.47;;;1.98;;
61531;SDS011;47397;48.194;11.632;2022-08-02T04:47:42;2.90;;;2.05;;
61531;SDS011;47397;48.194;11.632;2022-08-02T04:48:42;3.80;;;2.20;;
61531;SDS011;47397;48.194;11.632;2022-08-02T04:49:44;3.20;;;2.30;;
61531;SDS011;47397;48.194;11.632;2022-08-02T04:50:45;2.35;;;1.83;;
61531;SDS011;47397;48.194;11.632;2022-08-02T04:51:45;2.50;;;1.80;;
61531;SDS011;47397;48.194;11.632;2022-08-02T04:52:46;2.10;;;1.55;;
61531;SDS011;47397;48.194;11.632;2022-08-02T04:53:46;2.10;;;1.60;;
61531;SDS011;47397;48.194;11.632;2022-08-02T04:54:46;3.55;;;1.98;;
61531;SDS011;47397;48.194;11.632;2022-08-02T04:55:47;3.25;;;1.80;;
61531;SDS011;47397;48.194;11.632;2022-08-02T04:56:47;2.80;;;1.92;;
61531;SDS011;47397;48.194;11.632;2022-08-02T04:57:48;2.63;;;1.95;;
61531;SDS011;47397;48.194;11.632;2022-08-02T04:58:48;3.40;;;1.80;;
61531;SDS011;47397;48.194;11.632;2022-08-02T04:59:48;3.13;;;1.95;;
61531;SDS011;47397;48.194;11.632;2022-08-02T05:00:49;3.40;;;2.20;;
61531;SDS011;47397;48.194;11.632;2022-08-02T05:01:49;2.30;;;1.75;;
61531;SDS011;47397;48.194;11.632;2022-08-02T05:02:50;3.65;;;1.90;;
61531;SDS011;47397;48.194;11.632;2022-08-02T05:03:50;2.70;;;1.77;;
61531;SDS011;47397;48.194;11.632;2022-08-02T05:04:52;3.30;;;2.03;;
61531;SDS011;47397;48.194;11.632;2022-08-02T05:05:53;2.42;;;1.77;;
61531;SDS011;47397;48.194;11.632;2022-08-02T05:06:54;3.75;;;1.95;;
61531;SDS011;47397;48.194;11.632;2022-08-02T05:07:54;2.38;;;1.73;;
61531;SDS011;47397;48.194;11.632;2022-08-02T05:08:55;2.75;;;1.80;;
61531;SDS011;47397;48.194;11.632;2022-08-02T05:09:55;4.63;;;1.90;;
61531;SDS011;47397;48.194;11.632;2022-08-02T05:10:55;4.75;;;1.95;;
61531;SDS011;47397;48.194;11.632;2022-08-02T05:11:56;2.67;;;2.00;;
61531;SDS011;47397;48.194;11.632;2022-08-02T05:12:56;3.30;;;2.10;;
61531;SDS011;47397;48.194;11.632;2022-08-02T05:13:57;4.68;;;1.90;;
61531;SDS011;47397;48.194;11.632;2022-08-02T05:14:57;2.80;;;1.88;;
61531;SDS011;47397;48.194;11.632;2022-08-02T05:15:57;3.63;;;2.00;;
61531;SDS011;47397;48.194;11.632;2022-08-02T05:16:58;3.22;;;2.20;;
61531;SDS011;47397;48.194;11.632;2022-08-02T05:17:58;2.95;;;1.80;;
61531;SDS011;47397;48.194;11.632;2022-08-02T05:18:59;4.68;;;2.00;;
61531;SDS011;47397;48.194;11.632;2022-08-02T05:20:01;2.92;;;1.83;;
61531;SDS011;47397;48.194;11.632;2022-08-02T05:21:02;2.80;;;1.80;;
61531;SDS011;47397;48.194;11.632;2022-08-02T05:22:03;4.15;;;2.05;;
61531;SDS011;47397;48.194;11.632;2022-08-02T05:23:03;3.40;;;2.20;;
61531;SDS011;47397;48.194;11.632;2022-08-02T05:24:04;4.50;;;2.35;;
61531;SDS011;47397;48.194;11.632;2022-08-02T05:25:05;3.25;;;2.17;;
61531;SDS011;47397;48.194;11.632;2022-08-02T05:26:06;3.72;;;2.20;;
61531;SDS011;47397;48.194;11.632;2022-08-02T05:27:07;3.60;;;2.10;;
61531;SDS011;47397;48.194;11.632;2022-08-02T05:28:07;4.25;;;2.03;;
61531;SDS011;47397;48.194;11.632;2022-08-02T05:29:07;3.72;;;1.85;;
61531;SDS011;47397;48.194;11.632;2022-08-02T05:30:08;4.20;;;2.00;;
61531;SDS011;47397;48.194;11.632;2022-08-02T05:31:09;3.97;;;2.30;;
61531;SDS011;47397;48.194;11.632;2022-08-02T05:32:10;3.95;;;2.08;;
61531;SDS011;47397;48.194;11.632;2022-08-02T05:33:10;4.35;;;2.20;;
61531;SDS011;47397;48.194;11.632;2022-08-02T05:34:11;3.03;;;1.83;;
61531;SDS011;47397;48.194;11.632;2022-08-02T05:35:13;3.20;;;2.08;;
61531;SDS011;47397;48.194;11.632;2022-08-02T05:36:16;3.50;;;2.30;;
61531;SDS011;47397;48.194;11.632;2022-08-02T05:37:17;4.05;;;2.17;;
61531;SDS011;47397;48.194;11.632;2022-08-02T05:38:18;3.20;;;2.15;;
61531;SDS011;47397;48.194;11.632;2022-08-02T05:39:18;2.92;;;2.05;;
61531;SDS011;47397;48.194;11.632;2022-08-02T05:40:18;4.40;;;2.10;;
61531;SDS011;47397;48.194;11.632;2022-08-02T05:41:19;2.70;;;2.10;;
61531;SDS011;47397;48.194;11.632;2022-08-02T05:42:20;2.70;;;1.92;;
61531;SDS011;47397;48.194;11.632;2022-08-02T05:43:20;3.00;;;2.00;;
61531;SDS011;47397;48.194;11.632;2022-08-02T05:44:21;3.22;;;1.88;;
61531;SDS011;47397;48.194;11.632;2022-08-02T05:45:21;2.95;;;2.10;;
61531;SDS011;47397;48.194;11.632;2022-08-02T05:46:22;2.70;;;2.15;;
61531;SDS011;47397;48.194;11.632;2022-08-02T05:47:22;3.30;;;2.22;;
61531;SDS011;47397;48.194;11.632;2022-08-02T05:48:23;3.25;;;2.10;;
61531;SDS011;47397;48.194;11.632;2022-08-02T05:49:23;3.38;;;2.08;;
61531;SDS011;47397;48.194;11.632;2022-08-02T05:50:25;4.05;;;1.90;;
61531;SDS011;47397;48.194;11.632;2022-08-02T05:51:27;2.40;;;2.00;;
61531;SDS011;47397;48.194;11.632;2022-08-02T05:52:36;2.95;;;2.10;;
61531;SDS011;47397;48.194;11.632;2022-08-02T05:53:44;3.10;;;1.73;;
61531;SDS011;47397;48.194;11.632;2022-08-02T05:54:51;2.95;;;1.85;;
61531;SDS011;47397;48.194;11.632;2022-08-02T05:55:56;2.38;;;1.92;;
61531;SDS011;47397;48.194;11.632;2022-08-02T05:57:05;2.92;;;1.95;;
61531;SDS011;47397;48.194;11.632;2022-08-02T05:59:22;2.63;;;2.10;;
61531;SDS011;47397;48.194;11.632;2022-08-02T06:00:30;2.90;;;2.00;;
61531;SDS011;47397;48.194;11.632;2022-08-02T06:01:33;3.65;;;2.20;;
61531;SDS011;47397;48.194;11.632;2022-08-02T06:02:38;2.65;;;2.00;;
61531;SDS011;47397;48.194;11.632;2022-08-02T06:03:49;2.38;;;1.83;;
61531;SDS011;47397;48.194;11.632;2022-08-02T06:04:52;3.05;;;2.10;;
61531;SDS011;47397;48.194;11.632;2022-08-02T06:05:59;2.97;;;1.90;;
61531;SDS011;47397;48.194;11.632;2022-08-02T06:07:04;3.45;;;1.83;;
61531;SDS011;47397;48.194;11.632;2022-08-02T06:08:09;3.30;;;2.05;;
61531;SDS011;47397;48.194;11.632;2022-08-02T06:09:13;2.90;;;1.92;;
61531;SDS011;47397;48.194;11.632;2022-08-02T06:10:15;3.53;;;2.17;;